Ride Results

Upper Corindi (17-07-2011)
Ride distance: 80.0 km

Outcomes - Upper Corindi (17-07-2011)
Division No. of Entries Retired / DNE Completed Withdrawn Ineligible V/O Percentage Completed
HW 4 - 4 - - - 100.00%
MW 9 - 6 2 - 1 66.67%
LW 10 - 10 - - - 100.00%
JN 3 - 3 - - - 100.00%
Totals 26 - 23 2 - 1 88.46%
Results - Upper Corindi (17-07-2011)
No. Rider Horse Place Time Leg Speeds Total
Km/Hr
H/R bpm
Heavyweight
11 Matthew Gadsby Dardanga Fingal 1 (BC) 5:33:00 15.5, 13.4 14.41 36, 46, 49 (Avg:47)
23 Phil Coleman Alnotarj Statistic 2 6:29:00 13.7, 11.2 12.34 35, 38, 41 (Avg:39)
16 Selwyn Nix Dunbar Mahadik 3 6:51:00 12.3, 11.1 11.68 28, 38, 46 (Avg:42)
12 Allyson Taylor Bonnie Downs Aisha 4 7:03:00 12.6, 10.3 11.35 32, 39, 55 (Avg:47)
Middleweight
26 Jim Lillyman Meadowbrook Rhapsody 1 (BC) 5:24:00 15.7, 13.9 14.81 27, 36, 47 (Avg:41)
20 Judith Burton Woodbourne Bikini 2 6:03:00 15.5, 11.4 13.22 28, 42, 46 (Avg:44)
9 Tracey Hutchinson Beau Val Feodora 2 6:03:00 14.9, 11.8 13.22 38, 43, 42 (Avg:42)
17 Derryn Nix Dunbar El Maestro 4 6:51:00 12.3, 11.1 11.68 29, 43, 58 (Avg:50)
22 Di Kupsch Nangana Rivah Queen 5 7:02:00 12.7, 10.2 11.37 26, 38, 36 (Avg:37)
7 Dean Chamberlain Annordean Cash 6 7:56:00 10.9, 9.3 10.08 36, 46, 49 (Avg:47)
4 Rachael Keys Elfar Salute Metabolics moderate L2 0:00:00 15.5, 13.0 - 34, 47, 47 (Avg:47)
2 Sharon Foster Sharabel Akaysha Withdrawn L1 0:00:00 - - 33, 54 (Avg:54)
21 Karen Lee Shatahnia Withdrawn L1 0:00:00 - - 31, 45 (Avg:45)
Lightweight
8 Annette Chamberlain Annordean Lady Lilly 1 5:33:00 15.7, 13.2 14.41 36, 48, 53 (Avg:50)
18 Christine Christie Duke 2 6:29:00 14.7, 10.6 12.34 40, 50, 53 (Avg:51)
24 Ros Ryan Rainbows Reach Scout 2 6:29:00 13.7, 11.2 12.34 29, 36, 41 (Avg:38)
15 Xanthe Webb Sahateyn Romeo 2 (BC) 6:29:00 13.3, 11.4 12.34 32, 37, 41 (Avg:39)
6 Caroline Windle Sarina Rosetta 2 6:29:00 13.7, 11.1 12.34 34, 43, 50 (Avg:46)
27 Nina Jackson Stanpark Kilara 6 7:02:00 12.6, 10.3 11.37 37, 44, 48 (Avg:46)
25 Pip Lillyman Ben Ibn Raba 6 7:02:00 13.3, 9.9 11.37 30, 41, 42 (Avg:41)
10 Libby Jones Prada Kei 8 7:05:00 12.7, 10.1 11.29 35, 41, 45 (Avg:43)
3 Cathy Ferguson Die Kinder Summer 9 7:56:00 10.9, 9.3 10.08 58, 42, 44 (Avg:43)
14 Kim Ruehe Allyndah Silver Soverign 9 7:56:00 10.9, 9.3 10.08 42, 39, 47 (Avg:43)
Junior
5 Racheal Townsend Chingford Blaze Away 1 (BC) 5:24:00 15.8, 13.8 14.81 28, 40, 44 (Avg:42)
19 Jasmine Shields Woodbourne Betty 2 6:56:00 15.5, 9.1 11.54 31, 48, 50 (Avg:49)
13 Rhiannon Corney Bonnie Downs Samir 3 7:03:00 12.6, 10.3 11.35 34, 45, 56 (Avg:50)